Terminal Aerodrome Forecast
Issued by NWS

Home | Current Version | Previous Version | Text Only | Print | Product List | Glossary On
Versions: 1 2 3 4 5 6 7 8 9 10 11 12 13 14 15 16
000
FTUS45 KVEF 122300
TAFVGT
TAF
KVGT 122320Z 1300/1324 14007KT P6SM FEW250
     FM130400 32005KT P6SM FEW250
     FM131700 VRB05KT P6SM FEW120 SCT250
     FM131800 12007KT P6SM FEW120 SCT250=

USA.gov is the U.S. government's official web portal to all federal, state and local government web resources and services.